sensor_id;sensor_type;location;lat;lon;timestamp;pressure;altitude;pressure_sealevel;temperature;humidity
15817;BME280;8009;50.070;8.232;2023-02-10T01:36:02;102013.88;;;-1.00;69.49
15817;BME280;8009;50.070;8.232;2023-02-10T02:20:09;102037.97;;;0.01;66.21
15817;BME280;8009;50.070;8.232;2023-02-10T02:35:44;102046.81;;;0.44;65.89
15817;BME280;8009;50.070;8.232;2023-02-10T03:26:03;102045.88;;;0.71;64.97
15817;BME280;8009;50.070;8.232;2023-02-10T03:41:20;102046.75;;;0.77;65.01
15817;BME280;8009;50.070;8.232;2023-02-10T03:43:48;102056.50;;;0.73;65.14
15817;BME280;8009;50.070;8.232;2023-02-10T03:46:17;102055.63;;;0.63;66.12
15817;BME280;8009;50.070;8.232;2023-02-10T03:55:34;102054.75;;;0.73;66.07
15817;BME280;8009;50.070;8.232;2023-02-10T03:58:05;102056.47;;;0.85;65.70
15817;BME280;8009;50.070;8.232;2023-02-10T04:38:38;102092.84;;;0.68;66.62
15817;BME280;8009;50.070;8.232;2023-02-10T04:41:06;102086.63;;;0.84;66.35
15817;BME280;8009;50.070;8.232;2023-02-10T04:50:18;102099.97;;;0.52;68.65
15817;BME280;8009;50.070;8.232;2023-02-10T04:52:46;102095.50;;;0.80;67.41
15817;BME280;8009;50.070;8.232;2023-02-10T04:58:38;102107.88;;;0.93;67.09
15817;BME280;8009;50.070;8.232;2023-02-10T05:04:12;102104.34;;;0.85;66.60
15817;BME280;8009;50.070;8.232;2023-02-10T05:06:40;102105.22;;;0.90;66.15
15817;BME280;8009;50.070;8.232;2023-02-10T05:09:19;102109.63;;;1.04;66.03
15817;BME280;8009;50.070;8.232;2023-02-10T05:11:50;102102.47;;;1.19;65.67
15817;BME280;8009;50.070;8.232;2023-02-10T05:14:18;102107.78;;;1.27;65.23
15817;BME280;8009;50.070;8.232;2023-02-10T05:16:46;102110.50;;;0.95;65.96
15817;BME280;8009;50.070;8.232;2023-02-10T05:19:15;102116.78;;;0.85;66.84
15817;BME280;8009;50.070;8.232;2023-02-10T05:34:40;102111.34;;;1.14;65.88
15817;BME280;8009;50.070;8.232;2023-02-10T05:37:08;102106.09;;;0.95;67.01
15817;BME280;8009;50.070;8.232;2023-02-10T05:39:37;102105.19;;;0.98;65.97
15817;BME280;8009;50.070;8.232;2023-02-10T05:42:32;102105.16;;;1.09;66.44
15817;BME280;8009;50.070;8.232;2023-02-10T06:55:01;102152.22;;;0.96;67.20
15817;BME280;8009;50.070;8.232;2023-02-10T06:57:29;102149.47;;;1.20;67.26
15817;BME280;8009;50.070;8.232;2023-02-10T07:03:35;102157.53;;;0.96;67.97
15817;BME280;8009;50.070;8.232;2023-02-10T07:06:05;102162.81;;;1.13;67.80
15817;BME280;8009;50.070;8.232;2023-02-10T07:08:36;102169.00;;;1.27;67.05
15817;BME280;8009;50.070;8.232;2023-02-10T07:11:07;102167.22;;;1.25;66.83
15817;BME280;8009;50.070;8.232;2023-02-10T07:13:35;102175.19;;;1.25;67.47
15817;BME280;8009;50.070;8.232;2023-02-10T07:19:37;102184.09;;;1.13;67.47
15817;BME280;8009;50.070;8.232;2023-02-10T07:22:05;102187.69;;;0.63;69.41
15817;BME280;8009;50.070;8.232;2023-02-10T07:24:35;102186.78;;;1.08;68.45
15817;BME280;8009;50.070;8.232;2023-02-10T07:27:06;102189.41;;;1.13;67.66
15817;BME280;8009;50.070;8.232;2023-02-10T07:29:34;102188.56;;;0.97;68.62
15817;BME280;8009;50.070;8.232;2023-02-10T07:32:24;102189.41;;;1.27;67.80
15817;BME280;8009;50.070;8.232;2023-02-10T07:34:53;102190.22;;;1.47;67.42
15817;BME280;8009;50.070;8.232;2023-02-10T07:37:22;102183.09;;;1.55;67.17
15817;BME280;8009;50.070;8.232;2023-02-10T08:17:07;102198.88;;;1.98;64.50
15817;BME280;8009;50.070;8.232;2023-02-10T08:19:36;102209.34;;;2.29;64.96
15817;BME280;8009;50.070;8.232;2023-02-10T08:22:05;102203.03;;;2.43;63.81
15817;BME280;8009;50.070;8.232;2023-02-10T08:24:51;102196.84;;;2.38;63.32
15817;BME280;8009;50.070;8.232;2023-02-10T08:27:19;102202.22;;;2.37;63.74
15817;BME280;8009;50.070;8.232;2023-02-10T08:29:47;102201.28;;;2.42;63.41
15817;BME280;8009;50.070;8.232;2023-02-10T08:35:41;102201.31;;;2.35;63.65
15817;BME280;8009;50.070;8.232;2023-02-10T08:38:10;102204.97;;;2.17;63.53
15817;BME280;8009;50.070;8.232;2023-02-10T08:47:15;102212.88;;;2.32;64.06
15817;BME280;8009;50.070;8.232;2023-02-10T08:49:44;102207.38;;;2.60;63.62
15817;BME280;8009;50.070;8.232;2023-02-10T08:52:15;102208.16;;;2.73;63.08
15817;BME280;8009;50.070;8.232;2023-02-10T08:57:44;102210.97;;;2.54;63.58
15817;BME280;8009;50.070;8.232;2023-02-10T09:00:14;102216.38;;;2.45;63.34
15817;BME280;8009;50.070;8.232;2023-02-10T09:03:01;102212.69;;;2.61;63.36
15817;BME280;8009;50.070;8.232;2023-02-10T09:05:30;102221.66;;;2.51;63.12
15817;BME280;8009;50.070;8.232;2023-02-10T09:33:25;102225.75;;;2.98;62.91
15817;BME280;8009;50.070;8.232;2023-02-10T09:35:53;102229.16;;;3.11;63.15
15817;BME280;8009;50.070;8.232;2023-02-10T09:38:22;102232.91;;;2.91;63.54
15817;BME280;8009;50.070;8.232;2023-02-10T09:41:03;102232.84;;;2.98;63.40
15817;BME280;8009;50.070;8.232;2023-02-10T09:47:16;102228.16;;;3.23;62.90
15817;BME280;8009;50.070;8.232;2023-02-10T09:50:03;102232.66;;;3.19;63.37
15817;BME280;8009;50.070;8.232;2023-02-10T09:52:43;102237.81;;;3.37;62.28
15817;BME280;8009;50.070;8.232;2023-02-10T09:55:29;102240.72;;;3.11;62.97
15817;BME280;8009;50.070;8.232;2023-02-10T09:58:00;102241.41;;;3.33;61.85
15817;BME280;8009;50.070;8.232;2023-02-10T10:00:34;102245.94;;;3.25;61.78
15817;BME280;8009;50.070;8.232;2023-02-10T10:03:06;102240.63;;;3.22;62.32
15817;BME280;8009;50.070;8.232;2023-02-10T10:05:59;102245.09;;;3.22;63.21
15817;BME280;8009;50.070;8.232;2023-02-10T10:08:39;102245.22;;;3.05;62.72
15817;BME280;8009;50.070;8.232;2023-02-10T10:11:25;102242.13;;;3.49;61.49
15817;BME280;8009;50.070;8.232;2023-02-10T10:13:55;102237.69;;;3.51;61.83
15817;BME280;8009;50.070;8.232;2023-02-10T10:16:43;102239.38;;;3.57;61.49
15817;BME280;8009;50.070;8.232;2023-02-10T10:19:26;102250.22;;;3.45;60.90
15817;BME280;8009;50.070;8.232;2023-02-10T10:22:08;102249.75;;;2.97;62.21
15817;BME280;8009;50.070;8.232;2023-02-10T10:24:48;102257.72;;;3.01;62.97
15817;BME280;8009;50.070;8.232;2023-02-10T10:27:31;102252.22;;;3.21;62.47
15817;BME280;8009;50.070;8.232;2023-02-10T10:30:05;102247.28;;;2.75;63.97
15817;BME280;8009;50.070;8.232;2023-02-10T10:32:41;102245.47;;;3.71;62.07
15817;BME280;8009;50.070;8.232;2023-02-10T10:35:14;102241.16;;;3.58;61.92
15817;BME280;8009;50.070;8.232;2023-02-10T10:37:47;102240.13;;;3.71;61.54
15817;BME280;8009;50.070;8.232;2023-02-10T10:40:17;102249.88;;;3.74;61.32
15817;BME280;8009;50.070;8.232;2023-02-10T10:42:48;102248.66;;;3.19;63.92
15817;BME280;8009;50.070;8.232;2023-02-10T10:45:21;102248.38;;;3.47;62.99
15817;BME280;8009;50.070;8.232;2023-02-10T10:47:55;102250.34;;;3.29;63.27
15817;BME280;8009;50.070;8.232;2023-02-10T10:50:25;102248.31;;;3.54;62.73
15817;BME280;8009;50.070;8.232;2023-02-10T10:52:57;102238.88;;;4.01;61.26
15817;BME280;8009;50.070;8.232;2023-02-10T10:55:29;102237.97;;;3.99;61.98
15817;BME280;8009;50.070;8.232;2023-02-10T10:58:01;102236.03;;;4.12;61.57
15817;BME280;8009;50.070;8.232;2023-02-10T11:00:30;102231.41;;;4.25;61.50
15817;BME280;8009;50.070;8.232;2023-02-10T11:03:01;102231.06;;;4.46;61.13
15817;BME280;8009;50.070;8.232;2023-02-10T11:05:32;102232.19;;;4.33;60.89
15817;BME280;8009;50.070;8.232;2023-02-10T11:08:05;102226.06;;;4.25;61.45
15817;BME280;8009;50.070;8.232;2023-02-10T11:10:37;102232.97;;;4.39;61.15
15817;BME280;8009;50.070;8.232;2023-02-10T11:13:16;102225.56;;;4.58;60.74
15817;BME280;8009;50.070;8.232;2023-02-10T11:15:48;102228.22;;;4.60;61.06
15817;BME280;8009;50.070;8.232;2023-02-10T11:18:25;102233.03;;;4.35;60.69
15817;BME280;8009;50.070;8.232;2023-02-10T11:20:56;102215.47;;;4.17;61.80
15817;BME280;8009;50.070;8.232;2023-02-10T11:23:28;102220.50;;;4.40;61.35
15817;BME280;8009;50.070;8.232;2023-02-10T11:26:02;102227.63;;;4.39;61.30
15817;BME280;8009;50.070;8.232;2023-02-10T11:28:32;102227.97;;;4.75;60.46
15817;BME280;8009;50.070;8.232;2023-02-10T11:31:04;102219.47;;;4.49;61.06
15817;BME280;8009;50.070;8.232;2023-02-10T11:33:35;102218.31;;;4.65;60.53
15817;BME280;8009;50.070;8.232;2023-02-10T11:36:06;102212.06;;;4.66;60.58
15817;BME280;8009;50.070;8.232;2023-02-10T11:38:40;102223.53;;;4.74;60.64
15817;BME280;8009;50.070;8.232;2023-02-10T11:41:09;102213.44;;;4.90;60.38
15817;BME280;8009;50.070;8.232;2023-02-10T11:43:44;102208.81;;;5.00;60.25
15817;BME280;8009;50.070;8.232;2023-02-10T11:46:20;102210.47;;;5.08;59.67
15817;BME280;8009;50.070;8.232;2023-02-10T11:48:53;102202.78;;;4.87;60.31
15817;BME280;8009;50.070;8.232;2023-02-10T11:51:22;102199.94;;;4.98;60.31
15817;BME280;8009;50.070;8.232;2023-02-10T11:53:53;102197.47;;;4.85;60.28
15817;BME280;8009;50.070;8.232;2023-02-10T11:56:24;102201.50;;;4.58;61.67
15817;BME280;8009;50.070;8.232;2023-02-10T11:59:14;102194.88;;;4.79;60.88
15817;BME280;8009;50.070;8.232;2023-02-10T12:01:53;102192.91;;;4.91;60.72
15817;BME280;8009;50.070;8.232;2023-02-10T12:04:58;102193.03;;;4.83;60.78
15817;BME280;8009;50.070;8.232;2023-02-10T12:07:37;102188.13;;;5.09;60.81
15817;BME280;8009;50.070;8.232;2023-02-10T12:10:18;102188.34;;;4.97;61.34
15817;BME280;8009;50.070;8.232;2023-02-10T12:12:55;102190.88;;;5.05;60.82
15817;BME280;8009;50.070;8.232;2023-02-10T12:15:33;102182.97;;;4.97;60.99
15817;BME280;8009;50.070;8.232;2023-02-10T12:18:12;102184.50;;;5.10;60.65
15817;BME280;8009;50.070;8.232;2023-02-10T12:20:54;102176.91;;;5.35;59.79
15817;BME280;8009;50.070;8.232;2023-02-10T12:23:39;102173.41;;;5.32;60.18
15817;BME280;8009;50.070;8.232;2023-02-10T12:26:18;102185.53;;;5.03;60.88
15817;BME280;8009;50.070;8.232;2023-02-10T12:28:57;102170.16;;;5.16;60.40
15817;BME280;8009;50.070;8.232;2023-02-10T12:31:36;102175.41;;;5.21;60.22
15817;BME280;8009;50.070;8.232;2023-02-10T12:34:17;102173.44;;;5.30;60.48
15817;BME280;8009;50.070;8.232;2023-02-10T12:36:55;102184.50;;;5.12;61.59
15817;BME280;8009;50.070;8.232;2023-02-10T12:39:38;102167.47;;;5.14;60.58
15817;BME280;8009;50.070;8.232;2023-02-10T12:42:20;102171.25;;;5.04;61.26
15817;BME280;8009;50.070;8.232;2023-02-10T12:45:00;102170.53;;;5.43;60.97
15817;BME280;8009;50.070;8.232;2023-02-10T12:47:41;102168.72;;;4.95;62.18
15817;BME280;8009;50.070;8.232;2023-02-10T12:50:33;102153.78;;;5.31;60.61
15817;BME280;8009;50.070;8.232;2023-02-10T12:53:08;102150.66;;;5.53;59.84
15817;BME280;8009;50.070;8.232;2023-02-10T12:55:44;102148.06;;;5.50;60.12
15817;BME280;8009;50.070;8.232;2023-02-10T12:58:21;102140.75;;;5.58;60.11
15817;BME280;8009;50.070;8.232;2023-02-10T13:00:57;102147.75;;;5.65;60.25
15817;BME280;8009;50.070;8.232;2023-02-10T13:03:30;102142.28;;;5.68;59.86
15817;BME280;8009;50.070;8.232;2023-02-10T13:06:11;102146.75;;;5.69;59.71
15817;BME280;8009;50.070;8.232;2023-02-10T13:08:48;102134.56;;;5.54;59.83
15817;BME280;8009;50.070;8.232;2023-02-10T13:11:23;102138.44;;;5.81;59.32
15817;BME280;8009;50.070;8.232;2023-02-10T13:13:59;102132.94;;;5.87;59.40
15817;BME280;8009;50.070;8.232;2023-02-10T13:16:32;102124.22;;;5.78;59.75
15817;BME280;8009;50.070;8.232;2023-02-10T13:19:05;102125.84;;;5.85;59.72
15817;BME280;8009;50.070;8.232;2023-02-10T13:21:40;102123.56;;;5.67;60.29
15817;BME280;8009;50.070;8.232;2023-02-10T13:24:16;102132.53;;;5.66;60.21
15817;BME280;8009;50.070;8.232;2023-02-10T13:26:59;102133.44;;;6.06;58.80
15817;BME280;8009;50.070;8.232;2023-02-10T13:29:40;102117.28;;;6.09;59.37
15817;BME280;8009;50.070;8.232;2023-02-10T13:32:20;102120.81;;;6.12;59.66
15817;BME280;8009;50.070;8.232;2023-02-10T13:34:54;102126.88;;;6.20;59.67
15817;BME280;8009;50.070;8.232;2023-02-10T13:37:30;102122.75;;;6.05;59.81
15817;BME280;8009;50.070;8.232;2023-02-10T13:40:01;102128.81;;;6.13;59.77
15817;BME280;8009;50.070;8.232;2023-02-10T13:42:33;102128.75;;;6.16;59.85
15817;BME280;8009;50.070;8.232;2023-02-10T13:45:14;102127.44;;;6.32;59.22
15817;BME280;8009;50.070;8.232;2023-02-10T13:47:49;102131.88;;;6.35;59.48
15817;BME280;8009;50.070;8.232;2023-02-10T13:50:22;102128.44;;;6.30;59.29
15817;BME280;8009;50.070;8.232;2023-02-10T13:52:53;102130.81;;;6.41;59.24
15817;BME280;8009;50.070;8.232;2023-02-10T13:55:41;102123.50;;;6.47;59.61
15817;BME280;8009;50.070;8.232;2023-02-10T13:58:24;102123.44;;;6.50;59.19
15817;BME280;8009;50.070;8.232;2023-02-10T14:00:56;102121.25;;;6.66;58.83
15817;BME280;8009;50.070;8.232;2023-02-10T14:03:27;102120.00;;;6.45;59.78
15817;BME280;8009;50.070;8.232;2023-02-10T14:05:58;102108.28;;;6.48;59.70
15817;BME280;8009;50.070;8.232;2023-02-10T14:08:31;102106.78;;;6.36;60.29
15817;BME280;8009;50.070;8.232;2023-02-10T14:11:04;102107.09;;;6.59;59.41
15817;BME280;8009;50.070;8.232;2023-02-10T14:13:35;102103.22;;;6.35;59.95
15817;BME280;8009;50.070;8.232;2023-02-10T14:16:29;102101.50;;;6.33;60.18
15817;BME280;8009;50.070;8.232;2023-02-10T14:19:00;102095.56;;;6.56;59.48
15817;BME280;8009;50.070;8.232;2023-02-10T14:21:38;102097.63;;;6.45;60.12
15817;BME280;8009;50.070;8.232;2023-02-10T14:24:12;102094.94;;;6.45;60.02
15817;BME280;8009;50.070;8.232;2023-02-10T14:26:44;102102.22;;;6.41;60.03
15817;BME280;8009;50.070;8.232;2023-02-10T14:29:15;102092.84;;;6.57;59.41
15817;BME280;8009;50.070;8.232;2023-02-10T14:31:49;102080.94;;;6.68;59.21
15817;BME280;8009;50.070;8.232;2023-02-10T14:34:22;102080.03;;;6.33;59.86
15817;BME280;8009;50.070;8.232;2023-02-10T14:36:51;102081.56;;;6.43;60.01
15817;BME280;8009;50.070;8.232;2023-02-10T14:39:21;102085.25;;;6.39;60.16
15817;BME280;8009;50.070;8.232;2023-02-10T14:41:51;102085.22;;;6.41;60.16
15817;BME280;8009;50.070;8.232;2023-02-10T14:44:26;102091.19;;;6.52;59.87
15817;BME280;8009;50.070;8.232;2023-02-10T14:46:59;102091.13;;;6.55;59.89
15817;BME280;8009;50.070;8.232;2023-02-10T14:49:28;102083.72;;;6.63;59.87
15817;BME280;8009;50.070;8.232;2023-02-10T14:52:01;102079.34;;;6.61;59.42
15817;BME280;8009;50.070;8.232;2023-02-10T14:54:29;102077.63;;;6.58;59.91
15817;BME280;8009;50.070;8.232;2023-02-10T14:57:11;102091.31;;;6.47;59.74
15817;BME280;8009;50.070;8.232;2023-02-10T14:59:40;102077.41;;;6.66;59.33
15817;BME280;8009;50.070;8.232;2023-02-10T15:02:16;102093.44;;;6.33;60.62
15817;BME280;8009;50.070;8.232;2023-02-10T15:04:47;102095.94;;;6.41;60.15
15817;BME280;8009;50.070;8.232;2023-02-10T15:07:19;102089.19;;;6.26;60.47
15817;BME280;8009;50.070;8.232;2023-02-10T15:09:49;102085.44;;;6.31;60.46
15817;BME280;8009;50.070;8.232;2023-02-10T15:12:20;102081.81;;;5.97;61.20
15817;BME280;8009;50.070;8.232;2023-02-10T15:14:55;102080.94;;;5.96;61.78
15817;BME280;8009;50.070;8.232;2023-02-10T15:17:31;102079.06;;;6.00;61.71
15817;BME280;8009;50.070;8.232;2023-02-10T15:20:20;102075.16;;;6.15;61.04
15817;BME280;8009;50.070;8.232;2023-02-10T15:23:01;102074.34;;;6.09;60.84
15817;BME280;8009;50.070;8.232;2023-02-10T15:25:34;102061.34;;;5.91;61.59
15817;BME280;8009;50.070;8.232;2023-02-10T15:28:19;102065.44;;;6.09;60.82
15817;BME280;8009;50.070;8.232;2023-02-10T15:30:54;102065.75;;;5.95;61.79
15817;BME280;8009;50.070;8.232;2023-02-10T15:33:28;102077.41;;;5.94;61.96
15817;BME280;8009;50.070;8.232;2023-02-10T15:36:11;102070.44;;;5.85;61.70
15817;BME280;8009;50.070;8.232;2023-02-10T15:38:44;102066.59;;;5.57;63.00
15817;BME280;8009;50.070;8.232;2023-02-10T15:41:31;102062.44;;;5.84;62.45
15817;BME280;8009;50.070;8.232;2023-02-10T15:44:00;102060.22;;;5.62;62.67
15817;BME280;8009;50.070;8.232;2023-02-10T15:46:31;102074.63;;;5.57;63.09
15817;BME280;8009;50.070;8.232;2023-02-10T15:49:11;102067.72;;;5.47;63.21
15817;BME280;8009;50.070;8.232;2023-02-10T15:51:43;102063.84;;;5.61;62.38
15817;BME280;8009;50.070;8.232;2023-02-10T15:54:13;102076.97;;;5.74;62.17
15817;BME280;8009;50.070;8.232;2023-02-10T15:56:42;102074.56;;;5.60;62.38
15817;BME280;8009;50.070;8.232;2023-02-10T15:59:21;102072.81;;;5.59;62.37
15817;BME280;8009;50.070;8.232;2023-02-10T16:01:53;102063.91;;;5.58;61.72
15817;BME280;8009;50.070;8.232;2023-02-10T16:04:25;102067.56;;;5.54;61.55
15817;BME280;8009;50.070;8.232;2023-02-10T16:06:55;102062.25;;;5.51;61.36
15817;BME280;8009;50.070;8.232;2023-02-10T16:09:23;102069.03;;;5.68;61.53
15817;BME280;8009;50.070;8.232;2023-02-10T16:11:52;102078.19;;;5.59;61.61
15817;BME280;8009;50.070;8.232;2023-02-10T16:14:21;102080.00;;;5.57;61.75
15817;BME280;8009;50.070;8.232;2023-02-10T16:16:52;102076.59;;;5.49;61.81
15817;BME280;8009;50.070;8.232;2023-02-10T16:19:24;102076.84;;;5.38;61.82
15817;BME280;8009;50.070;8.232;2023-02-10T16:21:53;102071.34;;;5.44;61.71
15817;BME280;8009;50.070;8.232;2023-02-10T16:24:26;102068.59;;;5.47;61.39
15817;BME280;8009;50.070;8.232;2023-02-10T16:26:55;102062.22;;;5.54;61.34
15817;BME280;8009;50.070;8.232;2023-02-10T16:29:27;102063.31;;;5.46;61.11
15817;BME280;8009;50.070;8.232;2023-02-10T16:31:56;102063.47;;;5.36;61.99
15817;BME280;8009;50.070;8.232;2023-02-10T16:34:27;102068.88;;;5.33;61.82
15817;BME280;8009;50.070;8.232;2023-02-10T16:36:57;102068.22;;;5.24;62.01
15817;BME280;8009;50.070;8.232;2023-02-10T16:39:25;102072.75;;;5.19;62.03
15817;BME280;8009;50.070;8.232;2023-02-10T16:41:54;102078.41;;;4.58;63.98
15817;BME280;8009;50.070;8.232;2023-02-10T16:44:23;102074.00;;;5.02;62.69
15817;BME280;8009;50.070;8.232;2023-02-10T16:46:51;102066.84;;;5.03;62.67
15817;BME280;8009;50.070;8.232;2023-02-10T16:49:22;102068.75;;;4.98;62.93
15817;BME280;8009;50.070;8.232;2023-02-10T16:51:52;102079.69;;;4.84;63.53
15817;BME280;8009;50.070;8.232;2023-02-10T16:54:21;102069.97;;;4.81;63.49
15817;BME280;8009;50.070;8.232;2023-02-10T16:56:49;102077.94;;;4.83;62.96
15817;BME280;8009;50.070;8.232;2023-02-10T16:59:18;102074.56;;;4.73;63.41
15817;BME280;8009;50.070;8.232;2023-02-10T17:01:46;102076.16;;;4.83;63.58
15817;BME280;8009;50.070;8.232;2023-02-10T17:04:14;102070.94;;;4.77;62.97
15817;BME280;8009;50.070;8.232;2023-02-10T17:06:45;102074.34;;;4.84;62.71
15817;BME280;8009;50.070;8.232;2023-02-10T17:09:18;102078.13;;;4.74;63.00
15817;BME280;8009;50.070;8.232;2023-02-10T17:11:47;102087.09;;;4.71;63.10
15817;BME280;8009;50.070;8.232;2023-02-10T17:14:16;102088.09;;;4.66;63.54
15817;BME280;8009;50.070;8.232;2023-02-10T17:16:47;102095.03;;;4.25;65.17
15817;BME280;8009;50.070;8.232;2023-02-10T17:19:19;102104.72;;;4.32;65.32
15817;BME280;8009;50.070;8.232;2023-02-10T17:21:49;102098.50;;;4.30;66.14
15817;BME280;8009;50.070;8.232;2023-02-10T17:24:20;102104.59;;;4.38;64.86
15817;BME280;8009;50.070;8.232;2023-02-10T17:26:48;102111.78;;;4.34;64.34
15817;BME280;8009;50.070;8.232;2023-02-10T17:29:17;102100.50;;;4.15;65.22
15817;BME280;8009;50.070;8.232;2023-02-10T17:31:47;102106.91;;;4.05;66.34
15817;BME280;8009;50.070;8.232;2023-02-10T17:34:28;102101.38;;;4.18;65.08
15817;BME280;8009;50.070;8.232;2023-02-10T17:36:58;102097.94;;;4.09;65.38
15817;BME280;8009;50.070;8.232;2023-02-10T17:39:35;102097.91;;;4.12;65.04
15817;BME280;8009;50.070;8.232;2023-02-10T17:42:05;102102.41;;;4.07;66.14
15817;BME280;8009;50.070;8.232;2023-02-10T17:44:34;102101.50;;;4.10;66.53
15817;BME280;8009;50.070;8.232;2023-02-10T17:47:02;102106.81;;;4.11;65.84
15817;BME280;8009;50.070;8.232;2023-02-10T17:49:32;102106.66;;;3.60;67.40
15817;BME280;8009;50.070;8.232;2023-02-10T17:52:03;102110.63;;;3.95;66.34
15817;BME280;8009;50.070;8.232;2023-02-10T17:54:34;102114.91;;;4.08;66.40
15817;BME280;8009;50.070;8.232;2023-02-10T17:57:02;102115.69;;;4.12;65.92
15817;BME280;8009;50.070;8.232;2023-02-10T17:59:31;102114.94;;;4.04;66.68
15817;BME280;8009;50.070;8.232;2023-02-10T18:02:03;102121.97;;;4.11;65.85
15817;BME280;8009;50.070;8.232;2023-02-10T18:04:31;102126.94;;;3.75;67.05
15817;BME280;8009;50.070;8.232;2023-02-10T18:07:00;102120.03;;;3.60;67.65
15817;BME280;8009;50.070;8.232;2023-02-10T18:09:28;102126.59;;;3.33;68.53
15817;BME280;8009;50.070;8.232;2023-02-10T18:11:59;102125.28;;;3.65;67.60
15817;BME280;8009;50.070;8.232;2023-02-10T18:14:28;102133.97;;;3.10;69.25
15817;BME280;8009;50.070;8.232;2023-02-10T18:16:57;102131.88;;;3.38;68.14
15817;BME280;8009;50.070;8.232;2023-02-10T18:19:25;102135.88;;;2.99;69.79
15817;BME280;8009;50.070;8.232;2023-02-10T18:21:54;102121.06;;;3.49;67.83
15817;BME280;8009;50.070;8.232;2023-02-10T18:24:23;102132.81;;;3.34;68.00
15817;BME280;8009;50.070;8.232;2023-02-10T18:26:51;102140.25;;;3.04;69.29
15817;BME280;8009;50.070;8.232;2023-02-10T18:29:22;102141.34;;;2.86;70.04
15817;BME280;8009;50.070;8.232;2023-02-10T18:31:50;102133.25;;;2.94;69.47
15817;BME280;8009;50.070;8.232;2023-02-10T18:34:18;102131.69;;;2.72;70.41
15817;BME280;8009;50.070;8.232;2023-02-10T18:36:47;102129.44;;;3.18;69.05
15817;BME280;8009;50.070;8.232;2023-02-10T18:39:16;102126.00;;;3.07;68.76
15817;BME280;8009;50.070;8.232;2023-02-10T19:23:38;102119.81;;;3.03;69.59
15817;BME280;8009;50.070;8.232;2023-02-10T19:26:07;102123.00;;;2.50;71.10
15817;BME280;8009;50.070;8.232;2023-02-10T19:28:35;102112.19;;;2.65;70.76
15817;BME280;8009;50.070;8.232;2023-02-10T19:31:23;102116.63;;;2.63;70.55
15817;BME280;8009;50.070;8.232;2023-02-10T19:33:52;102119.22;;;2.74;70.36
15817;BME280;8009;50.070;8.232;2023-02-10T19:36:21;102113.88;;;2.75;70.19
15817;BME280;8009;50.070;8.232;2023-02-10T19:38:52;102118.50;;;2.55;71.26
15817;BME280;8009;50.070;8.232;2023-02-10T19:41:22;102113.88;;;2.75;70.64
15817;BME280;8009;50.070;8.232;2023-02-10T19:43:51;102114.59;;;2.89;70.06
15817;BME280;8009;50.070;8.232;2023-02-10T19:46:22;102115.28;;;3.10;69.56
15817;BME280;8009;50.070;8.232;2023-02-10T19:48:50;102110.88;;;3.07;69.28
15817;BME280;8009;50.070;8.232;2023-02-10T19:51:20;102104.81;;;2.90;69.87
15817;BME280;8009;50.070;8.232;2023-02-10T19:53:52;102102.03;;;3.01;69.52
15817;BME280;8009;50.070;8.232;2023-02-10T19:56:21;102107.56;;;2.82;69.73
15817;BME280;8009;50.070;8.232;2023-02-10T19:58:52;102103.38;;;2.57;70.62
15817;BME280;8009;50.070;8.232;2023-02-10T20:01:21;102093.41;;;2.74;70.24
15817;BME280;8009;50.070;8.232;2023-02-10T20:03:51;102092.63;;;2.64;70.55
15817;BME280;8009;50.070;8.232;2023-02-10T20:09:48;102080.34;;;2.48;71.12
15817;BME280;8009;50.070;8.232;2023-02-10T20:12:16;102081.09;;;2.62;70.65
15817;BME280;8009;50.070;8.232;2023-02-10T20:14:44;102093.56;;;2.63;70.47
15817;BME280;8009;50.070;8.232;2023-02-10T20:17:13;102089.22;;;2.50;71.25
15817;BME280;8009;50.070;8.232;2023-02-10T20:19:41;102112.59;;;2.19;71.57
15817;BME280;8009;50.070;8.232;2023-02-10T20:22:09;102108.00;;;2.35;71.82
15817;BME280;8009;50.070;8.232;2023-02-10T20:24:37;102124.25;;;2.01;72.60
15817;BME280;8009;50.070;8.232;2023-02-10T20:27:08;102127.84;;;1.94;73.52
15817;BME280;8009;50.070;8.232;2023-02-10T20:29:37;102118.63;;;2.41;71.76
15817;BME280;8009;50.070;8.232;2023-02-10T20:32:05;102136.47;;;2.33;71.62
15817;BME280;8009;50.070;8.232;2023-02-10T20:37:46;102131.13;;;2.31;71.77
15817;BME280;8009;50.070;8.232;2023-02-10T20:40:15;102126.81;;;2.15;72.09
15817;BME280;8009;50.070;8.232;2023-02-10T20:42:47;102121.03;;;2.67;70.87
15817;BME280;8009;50.070;8.232;2023-02-10T20:45:17;102125.44;;;2.74;70.63
15817;BME280;8009;50.070;8.232;2023-02-10T20:47:48;102116.72;;;2.55;70.80
15817;BME280;8009;50.070;8.232;2023-02-10T20:50:16;102111.38;;;2.55;71.14
15817;BME280;8009;50.070;8.232;2023-02-10T20:52:45;102111.44;;;2.51;71.42
15817;BME280;8009;50.070;8.232;2023-02-10T20:55:14;102111.53;;;2.41;71.71
15817;BME280;8009;50.070;8.232;2023-02-10T20:57:43;102106.38;;;2.18;72.13
15817;BME280;8009;50.070;8.232;2023-02-10T21:00:15;102100.97;;;2.29;71.57
15817;BME280;8009;50.070;8.232;2023-02-10T21:02:43;102095.78;;;2.05;72.70
15817;BME280;8009;50.070;8.232;2023-02-10T21:05:12;102095.63;;;2.25;72.34
15817;BME280;8009;50.070;8.232;2023-02-10T21:07:40;102091.97;;;2.39;71.50
15817;BME280;8009;50.070;8.232;2023-02-10T21:10:08;102078.75;;;2.27;71.99
15817;BME280;8009;50.070;8.232;2023-02-10T21:12:36;102085.00;;;2.23;72.61
15817;BME280;8009;50.070;8.232;2023-02-10T21:15:05;102086.84;;;2.13;72.41
15817;BME280;8009;50.070;8.232;2023-02-10T21:17:36;102084.06;;;2.27;72.23
15817;BME280;8009;50.070;8.232;2023-02-10T21:20:05;102087.88;;;1.99;73.09
15817;BME280;8009;50.070;8.232;2023-02-10T21:22:34;102080.78;;;1.93;73.13
15817;BME280;8009;50.070;8.232;2023-02-10T21:25:03;102085.91;;;2.20;72.39
15817;BME280;8009;50.070;8.232;2023-02-10T21:27:34;102081.50;;;2.13;72.39
15817;BME280;8009;50.070;8.232;2023-02-10T21:30:03;102082.34;;;2.23;72.25
15817;BME280;8009;50.070;8.232;2023-02-10T21:32:36;102088.50;;;2.30;72.17
15817;BME280;8009;50.070;8.232;2023-02-10T21:35:05;102090.25;;;2.34;72.34
15817;BME280;8009;50.070;8.232;2023-02-10T21:37:34;102088.44;;;2.37;72.13
15817;BME280;8009;50.070;8.232;2023-02-10T21:40:03;102083.06;;;2.42;72.39
15817;BME280;8009;50.070;8.232;2023-02-10T21:42:31;102082.13;;;2.46;72.06
15817;BME280;8009;50.070;8.232;2023-02-10T21:45:00;102079.44;;;2.52;72.01